createdAt,value
2023-10-18T00:00:26.508Z,0.93
2023-10-18T00:02:56.498Z,1.08
2023-10-18T00:05:24.502Z,0.97
2023-10-18T00:07:53.597Z,1.05
2023-10-18T00:10:21.955Z,0.85
2023-10-18T00:12:49.772Z,0.81
2023-10-18T00:15:16.864Z,0.74
2023-10-18T00:17:43.913Z,0.61
2023-10-18T00:20:24.932Z,0.55
2023-10-18T00:22:51.834Z,0.57
2023-10-18T00:25:21.672Z,0.58
2023-10-18T00:27:49.138Z,0.56
2023-10-18T00:30:19.462Z,0.62
2023-10-18T00:32:46.774Z,0.57
2023-10-18T00:35:24.124Z,0.50
2023-10-18T00:37:56.728Z,0.41
2023-10-18T00:40:44.450Z,0.47
2023-10-18T00:43:24.475Z,0.50
2023-10-18T00:45:53.222Z,0.46
2023-10-18T00:48:26.983Z,0.42
2023-10-18T00:50:56.208Z,0.35
2023-10-18T00:53:25.293Z,0.31
2023-10-18T00:56:01.099Z,0.32
2023-10-18T00:58:29.114Z,0.34
2023-10-18T01:01:00.374Z,0.26
2023-10-18T01:03:30.619Z,0.20
2023-10-18T01:06:05.775Z,0.15
2023-10-18T01:08:34.048Z,0.14
2023-10-18T01:11:06.228Z,0.24
2023-10-18T01:13:36.305Z,0.36
2023-10-18T01:16:07.547Z,0.31
2023-10-18T01:18:34.476Z,0.23
2023-10-18T01:21:11.062Z,0.20
2023-10-18T01:23:39.985Z,0.16
2023-10-18T01:26:06.851Z,0.14
2023-10-18T01:28:33.556Z,0.09
2023-10-18T01:31:00.302Z,0.07
2023-10-18T01:33:27.490Z,0.07
2023-10-18T01:35:54.976Z,0.06
2023-10-18T01:38:26.404Z,0.02
2023-10-18T01:40:54.071Z,-0.13
2023-10-18T01:43:20.837Z,-0.18
2023-10-18T01:45:50.095Z,-0.13
2023-10-18T01:48:19.535Z,-0.04
2023-10-18T01:50:47.378Z,-0.23
2023-10-18T01:53:17.344Z,-0.10
2023-10-18T01:55:53.128Z,-0.08
2023-10-18T01:58:24.960Z,-0.25
2023-10-18T02:00:54.886Z,-0.34
2023-10-18T02:03:23.107Z,-0.36
2023-10-18T02:05:50.465Z,-0.44
2023-10-18T02:08:17.414Z,-0.28
2023-10-18T02:10:46.109Z,-0.37
2023-10-18T02:13:16.890Z,-0.36
2023-10-18T02:15:44.058Z,-0.42
2023-10-18T02:18:11.528Z,-0.41
2023-10-18T02:20:43.191Z,-0.53
2023-10-18T02:23:12.764Z,-0.56
2023-10-18T02:25:42.756Z,-0.50
2023-10-18T02:28:25.355Z,-0.63
2023-10-18T02:30:57.305Z,-0.68
2023-10-18T02:33:40.816Z,-0.67
2023-10-18T02:36:22.016Z,-0.77
2023-10-18T02:38:50.459Z,-0.84
2023-10-18T02:41:22.033Z,-0.68
2023-10-18T02:43:56.165Z,-0.58
2023-10-18T02:46:27.463Z,-0.75
2023-10-18T02:48:58.520Z,-0.77
2023-10-18T02:51:26.329Z,-0.83
2023-10-18T02:53:54.763Z,-0.78
2023-10-18T02:56:22.243Z,-0.82
2023-10-18T02:58:49.267Z,-0.86
2023-10-18T03:01:16.498Z,-0.85
2023-10-18T03:03:47.903Z,-0.82
2023-10-18T03:06:15.399Z,-0.89
2023-10-18T03:08:48.265Z,-0.95
2023-10-18T03:11:15.038Z,-1.09
2023-10-18T03:13:43.519Z,-1.12
2023-10-18T03:16:10.402Z,-1.13
2023-10-18T03:18:38.368Z,-1.13
2023-10-18T03:21:09.777Z,-1.16
2023-10-18T03:23:45.969Z,-1.15
2023-10-18T03:26:13.681Z,-1.14
2023-10-18T03:28:44.575Z,-1.13
2023-10-18T03:31:30.534Z,-1.13
2023-10-18T03:34:03.764Z,-1.11
2023-10-18T03:36:36.875Z,-1.07
2023-10-18T03:39:17.359Z,-1.14
2023-10-18T03:41:44.547Z,-1.16
2023-10-18T03:44:14.542Z,-1.15
2023-10-18T03:46:50.419Z,-1.25
2023-10-18T03:49:32.404Z,-1.23
2023-10-18T03:52:03.854Z,-1.23
2023-10-18T03:54:44.665Z,-1.24
2023-10-18T03:57:17.482Z,-1.27
2023-10-18T03:59:48.215Z,-1.28
2023-10-18T04:02:28.295Z,-1.34
2023-10-18T04:05:02.045Z,-1.34
2023-10-18T04:07:30.859Z,-1.41
2023-10-18T04:10:00.782Z,-1.34
2023-10-18T04:12:31.117Z,-1.41
2023-10-18T04:14:57.951Z,-1.38
2023-10-18T04:17:36.807Z,-1.38
2023-10-18T04:20:24.188Z,-1.41
2023-10-18T04:22:52.031Z,-1.46
2023-10-18T04:25:27.292Z,-1.48
2023-10-18T04:28:01.750Z,-1.57
2023-10-18T04:30:32.403Z,-1.60
2023-10-18T04:33:09.980Z,-1.51
2023-10-18T04:35:41.723Z,-1.52
2023-10-18T04:38:23.177Z,-1.60
2023-10-18T04:40:58.946Z,-1.53
2023-10-18T04:43:28.629Z,-1.58
2023-10-18T04:45:58.172Z,-1.57
2023-10-18T04:48:45.040Z,-1.65
2023-10-18T04:51:28.105Z,-1.60
2023-10-18T04:54:01.830Z,-1.56
2023-10-18T04:56:45.684Z,-1.61
2023-10-18T04:59:20.474Z,-1.63
2023-10-18T05:01:54.629Z,-1.63
2023-10-18T05:04:26.585Z,-1.61
2023-10-18T05:06:57.110Z,-1.70
2023-10-18T05:09:36.479Z,-1.61
2023-10-18T05:12:15.555Z,-1.64
2023-10-18T05:14:54.140Z,-1.51
2023-10-18T05:17:25.302Z,-1.40
2023-10-18T05:19:52.866Z,-1.42
2023-10-18T05:22:26.429Z,-1.41
2023-10-18T05:25:16.986Z,-1.27
2023-10-18T05:27:48.544Z,-1.41
2023-10-18T05:30:28.156Z,-1.26
2023-10-18T05:33:00.743Z,-1.21
2023-10-18T05:35:35.475Z,-1.18
2023-10-18T05:38:20.303Z,-1.05
2023-10-18T05:40:59.020Z,-0.98
2023-10-18T05:43:32.667Z,-0.78
2023-10-18T05:46:05.193Z,-0.57
2023-10-18T05:48:33.780Z,-0.71
2023-10-18T05:51:06.779Z,-0.46
2023-10-18T05:53:33.553Z,-0.40
2023-10-18T05:56:00.350Z,-0.23
2023-10-18T05:58:27.372Z,-0.12
2023-10-18T06:00:56.997Z,-0.20
2023-10-18T06:03:40.649Z,0.18
2023-10-18T06:06:08.671Z,0.22
2023-10-18T06:08:36.208Z,0.42
2023-10-18T06:11:08.259Z,0.39
2023-10-18T06:13:38.062Z,0.60
2023-10-18T06:16:20.181Z,0.72
2023-10-18T06:18:50.932Z,0.94
2023-10-18T06:21:21.195Z,1.21
2023-10-18T06:23:58.261Z,1.27
2023-10-18T06:26:34.777Z,1.89
2023-10-18T06:29:03.480Z,1.83
2023-10-18T06:31:31.610Z,2.00
2023-10-18T06:34:04.261Z,2.15
2023-10-18T06:36:33.761Z,2.41
2023-10-18T06:39:01.109Z,2.36
2023-10-18T06:41:30.451Z,2.66
2023-10-18T06:43:59.600Z,2.75
2023-10-18T06:46:32.873Z,2.97
2023-10-18T06:49:10.766Z,2.96
2023-10-18T06:51:42.594Z,3.09
2023-10-18T06:54:16.027Z,3.34
2023-10-18T06:56:46.819Z,3.36
2023-10-18T06:59:14.820Z,3.52
2023-10-18T07:01:56.500Z,3.49
2023-10-18T07:04:48.047Z,3.32
2023-10-18T07:07:21.139Z,3.55
2023-10-18T07:09:55.425Z,3.47
2023-10-18T07:12:27.956Z,3.61
2023-10-18T07:14:58.180Z,3.66
2023-10-18T07:17:28.281Z,3.78
2023-10-18T07:19:58.127Z,3.78
2023-10-18T07:22:45.745Z,3.81
2023-10-18T07:25:23.374Z,3.75
2023-10-18T07:27:51.230Z,3.90
2023-10-18T07:30:18.206Z,4.02
2023-10-18T07:32:49.024Z,4.02
2023-10-18T07:35:28.280Z,4.05
2023-10-18T07:37:56.360Z,4.07
2023-10-18T07:40:23.623Z,4.19
2023-10-18T07:42:53.642Z,4.08
2023-10-18T07:45:22.586Z,4.19
2023-10-18T07:47:54.978Z,4.20
2023-10-18T07:50:41.085Z,4.37
2023-10-18T07:53:08.258Z,4.35
2023-10-18T07:55:38.916Z,4.22
2023-10-18T07:58:19.204Z,4.42
2023-10-18T08:01:09.833Z,4.67
2023-10-18T08:03:37.740Z,4.61
2023-10-18T08:06:27.781Z,4.61
2023-10-18T08:08:55.301Z,4.79
2023-10-18T08:11:25.184Z,4.67
2023-10-18T08:13:54.208Z,4.82
2023-10-18T08:16:21.186Z,4.84
2023-10-18T08:18:54.412Z,4.82
2023-10-18T08:21:37.932Z,4.98
2023-10-18T08:24:09.652Z,4.92
2023-10-18T08:26:49.819Z,4.98
2023-10-18T08:29:17.105Z,5.11
2023-10-18T08:31:49.874Z,5.21
2023-10-18T08:34:16.963Z,5.08
2023-10-18T08:36:47.148Z,5.27
2023-10-18T08:39:14.396Z,5.55
2023-10-18T08:41:57.826Z,5.55
2023-10-18T08:44:26.512Z,5.71
2023-10-18T08:47:05.675Z,5.91
2023-10-18T08:49:34.644Z,5.77
2023-10-18T08:52:11.797Z,5.93
2023-10-18T08:54:42.400Z,6.11
2023-10-18T08:57:12.746Z,6.15
2023-10-18T08:59:53.223Z,6.15
2023-10-18T09:02:22.984Z,6.38
2023-10-18T09:04:56.956Z,6.29
2023-10-18T09:07:47.938Z,6.47
2023-10-18T09:10:15.254Z,6.56
2023-10-18T09:12:44.988Z,6.74
2023-10-18T09:15:33.338Z,6.91
2023-10-18T09:18:06.984Z,7.33
2023-10-18T09:20:38.997Z,7.55
2023-10-18T09:23:06.678Z,7.59
2023-10-18T09:25:51.993Z,7.76
2023-10-18T09:28:27.392Z,8.26
2023-10-18T09:30:55.743Z,8.49
2023-10-18T09:33:27.650Z,8.29
2023-10-18T09:36:02.500Z,8.42
2023-10-18T09:38:45.829Z,8.54
2023-10-18T09:41:13.206Z,8.36
2023-10-18T09:43:40.132Z,8.54
2023-10-18T09:46:09.238Z,8.49
2023-10-18T09:48:42.542Z,8.47
2023-10-18T09:51:11.173Z,8.22
2023-10-18T09:54:08.632Z,8.01
2023-10-18T09:56:36.464Z,8.38
2023-10-18T09:59:09.716Z,8.35
2023-10-18T10:01:44.613Z,8.25
2023-10-18T10:04:15.557Z,8.15
2023-10-18T10:06:46.994Z,8.23
2023-10-18T10:09:18.716Z,8.45
2023-10-18T10:11:47.863Z,8.16
2023-10-18T10:14:19.668Z,8.25
2023-10-18T10:16:54.299Z,8.30
2023-10-18T10:19:35.648Z,8.21
2023-10-18T10:22:06.710Z,8.26
2023-10-18T10:24:46.409Z,8.32
2023-10-18T10:27:28.860Z,8.33
2023-10-18T10:29:59.857Z,8.51
2023-10-18T10:32:29.486Z,8.55
2023-10-18T10:35:16.785Z,8.68
2023-10-18T10:37:51.645Z,8.88
2023-10-18T10:40:31.143Z,9.25
2023-10-18T10:43:06.210Z,9.45
2023-10-18T10:45:37.340Z,9.46
2023-10-18T10:48:28.177Z,9.41
2023-10-18T10:51:10.372Z,9.50
2023-10-18T10:54:07.891Z,9.48
2023-10-18T10:56:37.062Z,9.82
2023-10-18T10:59:09.445Z,9.73
2023-10-18T11:01:58.813Z,9.66
2023-10-18T11:04:32.115Z,9.91
2023-10-18T11:07:10.394Z,9.79
2023-10-18T11:09:40.531Z,9.95
2023-10-18T11:12:15.169Z,10.05
2023-10-18T11:14:45.168Z,10.16
2023-10-18T11:17:15.123Z,10.28
2023-10-18T11:19:52.878Z,10.60
2023-10-18T11:22:24.766Z,10.64
2023-10-18T11:24:52.982Z,10.76
2023-10-18T11:27:24.751Z,10.53
2023-10-18T11:29:57.209Z,10.87
2023-10-18T11:32:30.524Z,10.90
2023-10-18T11:35:10.488Z,10.88
2023-10-18T11:37:39.498Z,11.08
2023-10-18T11:40:22.350Z,11.35
2023-10-18T11:42:56.631Z,11.00
2023-10-18T11:45:29.188Z,11.28
2023-10-18T11:47:57.342Z,11.23
2023-10-18T11:50:27.186Z,11.43
2023-10-18T11:52:53.937Z,11.59
2023-10-18T11:55:26.012Z,11.40
2023-10-18T11:57:52.797Z,11.51
2023-10-18T12:00:29.994Z,11.73
2023-10-18T12:02:57.141Z,11.92
2023-10-18T12:05:29.392Z,12.00
2023-10-18T12:08:07.164Z,12.13
2023-10-18T12:10:37.041Z,12.25
2023-10-18T12:13:13.790Z,12.34
2023-10-18T12:15:40.842Z,12.36
2023-10-18T12:18:07.979Z,12.35
2023-10-18T12:20:38.280Z,12.41
2023-10-18T12:23:28.289Z,12.53
2023-10-18T12:25:54.948Z,12.56
2023-10-18T12:28:30.509Z,12.59
2023-10-18T12:30:57.603Z,12.61
2023-10-18T12:33:28.738Z,12.73
2023-10-18T12:36:01.302Z,12.85
2023-10-18T12:38:34.482Z,12.65
2023-10-18T12:41:31.617Z,12.83
2023-10-18T12:43:59.771Z,12.92
2023-10-18T12:46:26.993Z,12.94
2023-10-18T12:48:53.807Z,12.93
2023-10-18T12:51:21.364Z,12.75
2023-10-18T12:53:57.509Z,12.67
2023-10-18T12:56:30.622Z,12.83
2023-10-18T12:59:07.199Z,12.60
2023-10-18T13:01:47.759Z,12.68
2023-10-18T13:04:21.378Z,12.71
2023-10-18T13:06:48.765Z,12.63
2023-10-18T13:09:17.570Z,12.70
2023-10-18T13:11:52.694Z,12.91
2023-10-18T13:14:35.357Z,13.01
2023-10-18T13:17:12.233Z,12.91
2023-10-18T13:19:45.584Z,13.03
2023-10-18T13:22:19.197Z,13.06
2023-10-18T13:24:46.453Z,13.16
2023-10-18T13:27:19.768Z,13.12
2023-10-18T13:29:50.341Z,13.23
2023-10-18T13:32:17.861Z,13.22
2023-10-18T13:34:46.286Z,13.18
2023-10-18T13:37:14.351Z,13.14
2023-10-18T13:39:44.245Z,13.19
2023-10-18T13:42:13.254Z,13.28
2023-10-18T13:44:42.651Z,13.35
2023-10-18T13:47:14.120Z,13.37
2023-10-18T13:49:43.797Z,13.25
2023-10-18T13:52:12.502Z,13.33
2023-10-18T13:54:39.597Z,13.47
2023-10-18T13:57:06.794Z,13.48
2023-10-18T13:59:35.813Z,13.27
2023-10-18T14:02:03.193Z,13.37
2023-10-18T14:04:31.328Z,13.35
2023-10-18T14:06:59.671Z,13.11
2023-10-18T14:09:28.430Z,12.84
2023-10-18T14:11:55.299Z,12.68
2023-10-18T14:14:22.574Z,12.86
2023-10-18T14:16:50.279Z,12.81
2023-10-18T14:19:21.030Z,12.76
2023-10-18T14:21:50.162Z,12.72
2023-10-18T14:24:19.373Z,12.68
2023-10-18T14:26:46.460Z,12.66
2023-10-18T14:29:13.697Z,12.75
2023-10-18T14:31:40.922Z,12.67
2023-10-18T14:34:08.725Z,12.55
2023-10-18T14:36:36.595Z,12.50
2023-10-18T14:39:04.733Z,12.52
2023-10-18T14:41:33.701Z,12.38
2023-10-18T14:44:01.910Z,12.42
2023-10-18T14:46:32.333Z,12.28
2023-10-18T14:49:01.295Z,12.30
2023-10-18T14:51:29.154Z,12.20
2023-10-18T14:53:56.042Z,12.18
2023-10-18T14:56:26.455Z,12.25
2023-10-18T14:58:56.297Z,12.14
2023-10-18T15:01:23.635Z,11.91
2023-10-18T15:03:51.789Z,12.03
2023-10-18T15:06:20.107Z,11.83
2023-10-18T15:08:50.849Z,11.91
2023-10-18T15:11:20.976Z,11.92
2023-10-18T15:13:49.445Z,11.90
2023-10-18T15:16:19.825Z,11.63
2023-10-18T15:18:48.368Z,11.66
2023-10-18T15:21:16.749Z,11.49
2023-10-18T15:23:47.148Z,11.67
2023-10-18T15:26:27.154Z,11.69
2023-10-18T15:28:54.424Z,11.54
2023-10-18T15:31:22.890Z,11.44
2023-10-18T15:33:49.822Z,11.40
2023-10-18T15:36:22.600Z,11.22
2023-10-18T15:38:54.657Z,11.21
2023-10-18T15:41:22.987Z,11.05
2023-10-18T15:43:52.885Z,11.05
2023-10-18T15:46:30.718Z,11.16
2023-10-18T15:49:01.807Z,10.96
2023-10-18T15:51:29.934Z,10.99
2023-10-18T15:54:00.106Z,10.70
2023-10-18T15:56:28.219Z,10.72
2023-10-18T15:58:57.581Z,10.64
2023-10-18T16:01:25.324Z,10.66
2023-10-18T16:03:53.414Z,10.52
2023-10-18T16:06:21.178Z,10.60
2023-10-18T16:08:50.033Z,10.55
2023-10-18T16:11:17.381Z,10.52
2023-10-18T16:13:44.793Z,10.42
2023-10-18T16:16:12.703Z,10.35
2023-10-18T16:18:42.536Z,10.34
2023-10-18T16:21:10.833Z,10.35
2023-10-18T16:23:41.301Z,10.15
2023-10-18T16:26:14.532Z,10.24
2023-10-18T16:28:44.592Z,10.04
2023-10-18T16:31:14.909Z,10.05
2023-10-18T16:33:42.551Z,9.99
2023-10-18T16:36:14.899Z,10.05
2023-10-18T16:38:42.340Z,10.06
2023-10-18T16:41:09.832Z,9.96
2023-10-18T16:43:38.206Z,9.95
2023-10-18T16:46:09.210Z,9.92
2023-10-18T16:48:37.108Z,9.90
2023-10-18T16:51:08.036Z,9.87
2023-10-18T16:53:34.983Z,9.91
2023-10-18T16:56:02.392Z,9.87
2023-10-18T16:58:31.128Z,9.76
2023-10-18T17:01:03.605Z,9.85
2023-10-18T17:03:31.578Z,9.70
2023-10-18T17:05:59.363Z,9.78
2023-10-18T17:08:30.328Z,9.64
2023-10-18T17:10:57.744Z,9.73
2023-10-18T17:13:24.635Z,9.78
2023-10-18T17:15:52.550Z,9.67
2023-10-18T17:18:21.957Z,9.53
2023-10-18T17:21:06.631Z,9.50
2023-10-18T17:23:37.184Z,9.45
2023-10-18T17:26:04.764Z,9.37
2023-10-18T17:28:32.444Z,9.37
2023-10-18T17:31:01.556Z,9.37
2023-10-18T17:33:31.617Z,9.32
2023-10-18T17:35:59.194Z,9.32
2023-10-18T17:38:26.204Z,9.25
2023-10-18T17:40:53.301Z,9.05
2023-10-18T17:43:20.555Z,9.13
2023-10-18T17:45:48.342Z,9.16
2023-10-18T17:48:17.094Z,9.15
2023-10-18T17:50:44.724Z,9.15
2023-10-18T17:53:16.665Z,8.98
2023-10-18T17:55:45.590Z,8.99
2023-10-18T17:58:16.268Z,8.98
2023-10-18T18:00:46.508Z,8.88
2023-10-18T18:03:15.514Z,8.84
2023-10-18T18:05:45.888Z,8.60
2023-10-18T18:08:25.850Z,8.52
2023-10-18T18:10:55.003Z,8.67
2023-10-18T18:13:25.908Z,8.70
2023-10-18T18:15:54.991Z,8.67
2023-10-18T18:18:25.855Z,8.78
2023-10-18T18:20:54.536Z,8.73
2023-10-18T18:23:21.906Z,8.74
2023-10-18T18:25:49.963Z,8.71
2023-10-18T18:28:20.438Z,8.61
2023-10-18T18:30:49.162Z,8.62
2023-10-18T18:33:17.437Z,8.79
2023-10-18T18:35:44.965Z,8.68
2023-10-18T18:38:13.514Z,8.40
2023-10-18T18:40:41.512Z,8.61
2023-10-18T18:43:08.893Z,8.58
2023-10-18T18:45:37.967Z,8.59
2023-10-18T18:48:05.712Z,8.55
2023-10-18T18:50:36.659Z,8.30
2023-10-18T18:53:04.275Z,8.43
2023-10-18T18:55:31.828Z,8.35
2023-10-18T18:58:04.697Z,8.28
2023-10-18T19:00:36.652Z,8.34
2023-10-18T19:03:06.081Z,8.28
2023-10-18T19:05:35.100Z,8.19
2023-10-18T19:08:07.825Z,8.36
2023-10-18T19:10:36.501Z,8.25
2023-10-18T19:13:04.132Z,8.39
2023-10-18T19:15:32.062Z,8.42
2023-10-18T19:18:02.583Z,8.34
2023-10-18T19:20:30.565Z,8.32
2023-10-18T19:23:04.358Z,8.11
2023-10-18T19:25:34.954Z,8.25
2023-10-18T19:28:02.665Z,8.14
2023-10-18T19:30:31.001Z,7.94
2023-10-18T19:33:03.957Z,7.95
2023-10-18T19:35:31.324Z,8.00
2023-10-18T19:38:02.056Z,8.12
2023-10-18T19:40:29.926Z,8.00
2023-10-18T19:42:56.977Z,8.10
2023-10-18T19:45:24.735Z,7.96
2023-10-18T19:47:54.466Z,7.81
2023-10-18T19:50:21.727Z,7.86
2023-10-18T19:52:49.124Z,7.87
2023-10-18T19:55:16.953Z,7.87
2023-10-18T19:57:44.585Z,7.88
2023-10-18T20:00:16.713Z,7.89
2023-10-18T20:02:45.563Z,7.79
2023-10-18T20:05:15.550Z,7.74
2023-10-18T20:07:42.689Z,7.69
2023-10-18T20:10:11.080Z,7.51
2023-10-18T20:12:38.442Z,7.75
2023-10-18T20:15:07.006Z,7.69
2023-10-18T20:17:34.549Z,7.55
2023-10-18T20:20:01.946Z,7.56
2023-10-18T20:22:28.759Z,7.35
2023-10-18T20:24:56.532Z,7.33
2023-10-18T20:27:23.684Z,7.32
2023-10-18T20:29:52.630Z,7.24
2023-10-18T20:32:19.502Z,7.20
2023-10-18T20:34:46.908Z,7.18
2023-10-18T20:37:13.659Z,7.20
2023-10-18T20:39:51.589Z,7.31
2023-10-18T20:42:19.881Z,7.21
2023-10-18T20:44:50.043Z,7.07
2023-10-18T20:47:28.462Z,7.24
2023-10-18T20:49:55.968Z,7.25
2023-10-18T20:52:28.050Z,7.34
2023-10-18T20:54:55.504Z,7.26
2023-10-18T20:57:22.441Z,7.29
2023-10-18T20:59:49.805Z,7.30
2023-10-18T21:02:18.810Z,7.12
2023-10-18T21:04:46.546Z,7.20
2023-10-18T21:07:17.067Z,7.04
2023-10-18T21:09:44.739Z,7.08
2023-10-18T21:12:12.856Z,7.06
2023-10-18T21:14:39.594Z,6.98
2023-10-18T21:17:07.260Z,6.91
2023-10-18T21:19:34.158Z,6.92
2023-10-18T21:22:01.140Z,6.71
2023-10-18T21:24:27.893Z,6.70
2023-10-18T21:26:54.700Z,6.50
2023-10-18T21:29:21.618Z,6.42
2023-10-18T21:31:48.485Z,6.30
2023-10-18T21:34:15.275Z,6.43
2023-10-18T21:36:42.156Z,6.29
2023-10-18T21:39:10.282Z,6.04
2023-10-18T21:41:38.635Z,6.07
2023-10-18T21:44:05.927Z,6.18
2023-10-18T21:46:36.014Z,5.98
2023-10-18T21:49:03.073Z,5.81
2023-10-18T21:51:30.151Z,5.65
2023-10-18T21:53:58.146Z,5.79
2023-10-18T21:56:25.040Z,5.74
2023-10-18T21:58:52.694Z,5.49
2023-10-18T22:01:40.799Z,5.64
2023-10-18T22:04:08.808Z,5.60
2023-10-18T22:06:36.882Z,5.54
2023-10-18T22:09:23.320Z,5.49
2023-10-18T22:11:50.454Z,5.44
2023-10-18T22:14:20.510Z,5.46
2023-10-18T22:16:56.839Z,5.57
2023-10-18T22:19:29.080Z,5.56
2023-10-18T22:21:56.530Z,5.53
2023-10-18T22:24:28.225Z,5.54
2023-10-18T22:26:58.630Z,5.62
2023-10-18T22:29:29.372Z,5.61
2023-10-18T22:32:10.429Z,5.56
2023-10-18T22:34:43.369Z,5.63
2023-10-18T22:37:13.836Z,5.62
2023-10-18T22:39:42.542Z,5.52
2023-10-18T22:42:11.188Z,5.53
2023-10-18T22:44:41.495Z,5.54
2023-10-18T22:47:21.556Z,5.50
2023-10-18T22:49:49.930Z,5.76
2023-10-18T22:52:27.807Z,5.55
2023-10-18T22:55:20.324Z,5.37
2023-10-18T22:57:48.517Z,5.51
2023-10-18T23:03:37.496Z,5.50
2023-10-18T23:06:11.745Z,5.69
2023-10-18T23:08:38.511Z,5.83
2023-10-18T23:11:21.119Z,5.83
2023-10-18T23:13:51.809Z,5.92
2023-10-18T23:16:54.981Z,6.12
2023-10-18T23:19:29.115Z,6.37
2023-10-18T23:22:00.703Z,6.41
2023-10-18T23:24:33.288Z,6.59
2023-10-18T23:27:19.665Z,6.70
2023-10-18T23:29:49.020Z,6.43
2023-10-18T23:32:30.530Z,6.39
2023-10-18T23:35:18.770Z,6.35
2023-10-18T23:37:56.137Z,6.27
2023-10-18T23:40:27.170Z,6.46
2023-10-18T23:43:10.412Z,6.30
2023-10-18T23:45:41.946Z,6.03
2023-10-18T23:48:18.127Z,6.16
2023-10-18T23:50:52.121Z,6.41
2023-10-18T23:53:18.992Z,6.29
2023-10-18T23:56:09.167Z,6.39
2023-10-18T23:58:36.024Z,6.56
